Weather reports worldwide

Advertisment
Molina De Aragon, Spain (8232): temperature & dewpoint: 28.05.2020 21:00:00 - 03.06.2020 21:00:00 (CEST)Molina De Aragon, Spain (8232): wind speed: 28.05.2020 21:00:00 - 03.06.2020 21:00:00 (CEST)Molina De Aragon, Spain (8232): wind direction: 28.05.2020 21:00:00 - 03.06.2020 21:00:00 (CEST)Molina De Aragon, Spain (8232): visibility: 28.05.2020 21:00:00 - 03.06.2020 21:00:00 (CEST)Molina De Aragon, Spain (8232): precipitation: 28.05.2020 21:00:00 - 03.06.2020 21:00:00 (CEST)
Date & Time tt [°C] td [°C] ff [km/h] ff [kn] dd vv [km] rr [mm]
03.06.2020 21:00:00 14,4 12,8 8 4 N 2,3 5,0
03.06.2020 20:00:00 22,1 8,6 11 6 W 20 -
03.06.2020 19:00:00 23,8 8,2 18 10 WSW 20 0,0
03.06.2020 18:00:00 23,8 9,4 16 9 WSW 20 0,0
03.06.2020 17:00:00 24,4 10,7 13 7 WSW 20 -
03.06.2020 16:00:00 24,5 10,7 16 9 W 20 0,0
03.06.2020 15:00:00 24,3 9,8 16 9 WSW 20 0,0
03.06.2020 14:00:00 23,9 9,1 11 6 WSW 20 -
03.06.2020 13:00:00 23,1 9,8 11 6 SW 20 0,0
03.06.2020 12:00:00 22,8 11,5 11 6 W 20 0,0
03.06.2020 11:00:00 21,1 10,6 8 4 W 20 -
03.06.2020 10:00:00 17,5 12,6 2 1 W 20 0,0
03.06.2020 09:00:00 13,8 11,0 2 1 S 20 0,0
03.06.2020 08:00:00 9,8 9,2 2 1 NE 20 -
03.06.2020 07:00:00 9,2 8,1 2 1 E 8 0,0
03.06.2020 06:00:00 9,7 8,5 2 1 ESE 12 0,0
03.06.2020 05:00:00 10,4 9,0 2 1 E 14 -
03.06.2020 04:00:00 11,1 9,5 2 1 ESE 20 0,0
03.06.2020 03:00:00 12,2 10,3 2 1 E 20 0,0
03.06.2020 02:00:00 13,4 11,3 2 1 ESE 20 -
03.06.2020 01:00:00 14,5 11,8 2 1 E 20 0,0
03.06.2020 00:00:00 15,6 11,8 0 0 N 20 0,0
02.06.2020 23:00:00 17,5 12,2 2 1 SSE 17 -
02.06.2020 22:00:00 19,9 12,4 2 1 E 20 0,0
02.06.2020 21:00:00 22,5 10,6 2 1 NNW 20 0,0
02.06.2020 20:00:00 24,4 8,4 5 3 W 20 -
02.06.2020 19:00:00 25,8 8,7 8 4 WSW 20 0,0
02.06.2020 18:00:00 25,8 11,2 9 5 SW 20 0,0
02.06.2020 17:00:00 25,3 9,6 11 6 W 20 -
02.06.2020 16:00:00 25,1 12,0 8 4 WNW 20 0,0
02.06.2020 15:00:00 24,8 11,0 11 6 W 19 0,0
02.06.2020 14:00:00 24,4 9,9 4 2 WSW 20 -
02.06.2020 13:00:00 24,9 11,8 9 5 W 20 0,0
02.06.2020 12:00:00 23,9 13,4 5 3 WNW 20 0,0
02.06.2020 11:00:00 22,0 13,6 5 3 NW 20 -
02.06.2020 10:00:00 18,6 13,5 4 2 SW 20 0,0
02.06.2020 09:00:00 15,8 12,7 2 1 WSW 20 0,0
02.06.2020 08:00:00 13,5 12,1 2 1 SSW 20 -
02.06.2020 07:00:00 12,6 11,2 2 1 NNE 19 0,0
02.06.2020 06:00:00 13,2 11,8 0 0 N 20 0,0
02.06.2020 05:00:00 13,5 11,9 0 0 N 20 -
02.06.2020 04:00:00 14,2 12,8 4 2 SSW 20 0,0
02.06.2020 03:00:00 14,2 12,4 2 1 S 20 0,0
02.06.2020 02:00:00 14,5 12,5 4 2 E 20 -
02.06.2020 01:00:00 15,4 12,5 2 1 E 20 0,0
02.06.2020 00:00:00 16,5 13,2 4 2 ESE 20 0,0
01.06.2020 23:00:00 17,7 12,8 4 2 E 20 -
01.06.2020 22:00:00 19,6 13,3 2 1 SE 20 0,0
01.06.2020 21:00:00 22,0 12,0 4 2 NNW 20 0,0
01.06.2020 20:00:00 23,6 11,0 9 5 W 20 -
01.06.2020 19:00:00 25,3 11,1 5 3 W 20 0,0
01.06.2020 18:00:00 26,1 10,3 9 5 WNW 20 0,0
01.06.2020 17:00:00 25,8 11,9 8 4 NW 20 -
01.06.2020 16:00:00 24,5 11,1 5 3 W 20 0,0
01.06.2020 15:00:00 24,4 12,0 8 4 W 20 0,0
01.06.2020 14:00:00 23,2 12,8 9 5 SSW 20 -
01.06.2020 13:00:00 21,9 12,4 9 5 SW 20 0,0
01.06.2020 12:00:00 20,8 11,4 9 5 WSW 20 0,0
01.06.2020 11:00:00 19,5 14,1 8 4 WNW 20 -
01.06.2020 10:00:00 17,8 13,3 4 2 W 20 0,0
01.06.2020 09:00:00 15,2 12,1 2 1 SSE 20 0,0
01.06.2020 08:00:00 12,3 11,8 2 1 SE 12 -
01.06.2020 07:00:00 12,0 11,2 2 1 SW 15 0,0
01.06.2020 06:00:00 12,5 11,6 2 1 ENE 11 0,0
01.06.2020 05:00:00 13,1 12,3 2 1 E 14 -
01.06.2020 04:00:00 13,6 12,5 2 1 ENE 18 0,2
01.06.2020 03:00:00 14,1 12,7 2 1 NW 18 0,0
01.06.2020 02:00:00 14,2 13,2 4 2 WNW 10 -
01.06.2020 01:00:00 14,2 13,1 2 1 NE 15 0,0
01.06.2020 00:00:00 14,3 13,0 2 1 ENE 15 0,0
31.05.2020 23:00:00 14,6 13,1 2 1 E 14 -
31.05.2020 22:00:00 15,0 13,7 4 2 ENE 18 0,4
31.05.2020 21:00:00 15,0 13,4 5 3 S 20 0,2
31.05.2020 20:00:00 15,0 13,4 4 2 E 12 -
31.05.2020 19:00:00 16,0 13,3 5 3 NNE 0,6 11,0
31.05.2020 18:00:00 22,0 11,4 8 4 ENE 20 0,0
31.05.2020 17:00:00 24,4 9,9 11 6 E 20 -
31.05.2020 16:00:00 25,8 10,4 8 4 W 20 0,0
31.05.2020 15:00:00 25,5 9,3 8 4 SW 19 0,0
31.05.2020 14:00:00 25,9 9,3 9 5 WSW 20 -
31.05.2020 13:00:00 26,4 11,3 8 4 SSW 20 0,0
31.05.2020 12:00:00 24,9 11,1 5 3 NW 20 0,0
31.05.2020 11:00:00 22,5 11,6 5 3 WNW 20 -
31.05.2020 10:00:00 18,8 10,6 2 1 E 20 0,0
31.05.2020 09:00:00 14,9 10,3 2 1 NNE 20 0,0
31.05.2020 08:00:00 10,9 9,5 2 1 ENE 20 -
31.05.2020 07:00:00 10,3 8,7 2 1 ESE 20 0,0
31.05.2020 06:00:00 10,6 9,0 2 1 ESE 20 0,0
31.05.2020 05:00:00 11,1 9,4 2 1 E 20 -
31.05.2020 04:00:00 11,8 9,7 2 1 E 20 0,0
31.05.2020 03:00:00 12,6 10,0 2 1 ENE 20 0,0
31.05.2020 02:00:00 13,8 10,6 2 1 ENE 20 -
31.05.2020 01:00:00 15,3 11,3 4 2 E 20 0,0
31.05.2020 00:00:00 16,7 11,6 4 2 N 20 0,0
30.05.2020 23:00:00 18,5 11,8 2 1 E 20 -
30.05.2020 22:00:00 20,7 12,7 4 2 SE 20 0,0
30.05.2020 21:00:00 23,1 13,0 4 2 NNE 20 0,0
30.05.2020 20:00:00 24,8 7,4 2 1 NNW 20 -
30.05.2020 19:00:00 28,2 8,5 5 3 NNE 20 0,0
30.05.2020 18:00:00 27,6 7,4 8 4 W 20 0,0
30.05.2020 17:00:00 26,9 7,9 8 4 WSW 20 -
30.05.2020 16:00:00 26,4 7,9 5 3 W 20 0,0
30.05.2020 15:00:00 26,5 10,6 8 4 SW 20 0,0
30.05.2020 14:00:00 25,4 9,6 11 6 W 20 -
30.05.2020 13:00:00 24,8 9,5 5 3 W 20 0,0
30.05.2020 12:00:00 23,4 9,8 4 2 SE 20 0,0
30.05.2020 11:00:00 20,7 9,3 4 2 W 7 -
30.05.2020 10:00:00 17,3 9,9 4 2 SW 14 0,0
30.05.2020 09:00:00 13,5 9,3 0 0 N 19 0,0
30.05.2020 08:00:00 9,5 8,3 2 1 NE 20 -
30.05.2020 07:00:00 9,1 7,4 2 1 E 20 0,0
30.05.2020 06:00:00 9,9 8,0 2 1 E 15 0,0
30.05.2020 05:00:00 10,7 8,1 2 1 E 20 -
30.05.2020 04:00:00 12,0 9,0 2 1 E 20 0,0
30.05.2020 03:00:00 13,2 9,3 2 1 ESE 16 0,0
30.05.2020 02:00:00 13,8 9,0 2 1 E 13 -
30.05.2020 01:00:00 14,8 8,7 4 2 ENE 19 0,0
30.05.2020 00:00:00 15,9 9,8 2 1 E 13 0,0
29.05.2020 23:00:00 17,5 9,1 4 2 E 20 -
29.05.2020 22:00:00 19,1 8,7 4 2 NNE 20 0,0
29.05.2020 21:00:00 22,5 9,6 2 1 N 20 0,0
29.05.2020 20:00:00 25,4 8,4 4 2 N 20 -
29.05.2020 19:00:00 26,1 10,7 5 3 N 20 0,0
29.05.2020 18:00:00 27,5 8,4 5 3 WNW 18 0,0
29.05.2020 17:00:00 26,8 9,2 5 3 NNE 19 -
29.05.2020 16:00:00 26,6 7,6 4 2 WNW 17 0,0
29.05.2020 15:00:00 25,7 8,2 5 3 SW 20 0,0
29.05.2020 14:00:00 24,9 8,8 5 3 SSE 20 -
29.05.2020 13:00:00 23,7 9,3 4 2 ESE 20 0,0
29.05.2020 12:00:00 21,9 11,0 4 2 SW 20 0,0
29.05.2020 11:00:00 20,3 11,5 2 1 WNW 20 -
29.05.2020 10:00:00 16,5 10,1 4 2 E 20 0,0
29.05.2020 09:00:00 12,3 8,8 2 1 S 20 0,0
29.05.2020 08:00:00 8,4 7,2 0 0 N 20 -
29.05.2020 07:00:00 7,7 6,3 2 1 E 20 0,0
29.05.2020 06:00:00 8,4 6,7 2 1 ESE 18 0,0
29.05.2020 05:00:00 9,1 7,2 2 1 E 20 -
29.05.2020 04:00:00 10,0 7,6 2 1 E 20 0,0
29.05.2020 03:00:00 11,0 8,2 2 1 E 20 0,0
29.05.2020 02:00:00 12,2 8,7 2 1 E 20 -
29.05.2020 01:00:00 13,8 8,8 2 1 E 20 0,0
29.05.2020 00:00:00 15,5 8,9 4 2 E 20 0,0
28.05.2020 23:00:00 16,9 9,3 4 2 E 20 -
28.05.2020 22:00:00 18,9 9,1 4 2 NNE 20 0,0
28.05.2020 21:00:00 21,8 8,7 2 1 NE 20 0,0

tt = temperature
td = dewpoint
ff = wind speed
dd = wind direction
vv = visibility
rr = precipitation

Next stations